General Aviation Weather

Text Reports

Enter one or more of the following location identifiers separated by a space:

Zip Code, Four-Character ICAO or Three-Character IATA airport codes.

METAR - Aviation Routine Weather Report
KGLY - Clinton, Missouri
Updated at 6:15 PM GMT on September 16, 2014 (1:15 PM CDT):
METAR KGLY 161815Z AUTO 00000KT 9SM SCT018 OVC027 19/14 A3018 RMK AO2
TAF - Terminal Area Forecast
KGLY - Clinton, Missouri
Updated at 6:15 PM GMT on September 16, 2014 (1:15 PM CDT):
No TAF is currently available for this location.
Decoded:
No decoded TAF is available.
PIREP - Pilot Weather Report
KGLY - Clinton, Missouri
Updated at 6:15 PM GMT on September 16, 2014 (1:15 PM CDT):
No PIREP is currently available for this location.
AIRMET - Airmens Meteorological Information
KGLY - Clinton, Missouri
Updated at 6:15 PM GMT on September 16, 2014 (1:15 PM CDT):
No AIRMET is currently available for this location.
SIGMET - Significant Meteorological Information
KGLY - Clinton, Missouri
Updated at 6:15 PM GMT on September 16, 2014 (1:15 PM CDT):
No SIGMET is currently available for this location.
NOTAM - Notice to Airmen
KGLY - Clinton, Missouri
Updated at 6:15 PM GMT on September 16, 2014 (1:15 PM CDT):
No NOTAM is currently available for this location.
Forecast Area
KGLY - Clinton, Missouri
Updated at 6:15 PM GMT on September 16, 2014 (1:15 PM CDT):
No NOTAM is currently available for this location.
Aviation Weather Maps